createdAt,value
2023-03-06T00:54:53.139Z,500.00
2023-03-06T00:55:54.063Z,500.00
2023-03-06T00:56:54.007Z,500.00
2023-03-06T00:57:53.957Z,500.00
2023-03-06T00:58:53.910Z,500.00
2023-03-06T00:59:53.868Z,500.00
2023-03-06T01:00:53.858Z,419.00
2023-03-06T01:01:53.835Z,400.00
2023-03-06T01:02:53.801Z,400.00
2023-03-06T01:03:53.669Z,400.00
2023-03-06T01:04:53.627Z,400.00
2023-03-06T01:05:53.581Z,400.00
2023-03-06T01:06:53.525Z,400.00
2023-03-06T01:07:53.480Z,400.00
2023-03-06T01:08:53.438Z,428.00
2023-03-06T01:09:53.386Z,462.00
2023-03-06T01:10:53.371Z,493.00
2023-03-06T01:11:53.298Z,498.00
2023-03-06T01:12:53.258Z,500.00
2023-03-06T01:13:53.225Z,501.00
2023-03-06T01:14:53.186Z,502.00
2023-03-06T01:15:53.125Z,500.00
2023-03-06T01:16:53.079Z,499.00
2023-03-06T01:17:53.023Z,500.00
2023-03-06T01:18:52.987Z,500.00
2023-03-06T01:19:52.939Z,500.00
2023-03-06T01:20:52.882Z,500.00
2023-03-06T01:21:52.839Z,504.00
2023-03-06T01:22:52.783Z,500.00
2023-03-06T01:23:52.767Z,503.00
2023-03-06T01:24:52.684Z,502.00
2023-03-06T01:25:52.637Z,500.00
2023-03-06T01:26:52.621Z,500.00
2023-03-06T01:27:52.589Z,502.00
2023-03-06T01:28:52.487Z,501.00
2023-03-06T01:29:52.436Z,500.00
2023-03-06T01:30:52.395Z,501.00
2023-03-06T01:31:52.454Z,504.00
2023-03-06T01:32:52.300Z,500.00
2023-03-06T01:33:52.255Z,501.00
2023-03-06T01:34:52.204Z,501.00
2023-03-06T01:35:52.202Z,502.00
2023-03-06T01:36:52.121Z,500.00
2023-03-06T01:37:52.079Z,505.00
2023-03-06T01:38:52.020Z,504.00
2023-03-06T01:39:51.974Z,503.00
2023-03-06T01:40:51.926Z,504.00
2023-03-06T01:41:51.879Z,500.00
2023-03-06T01:42:51.872Z,503.00
2023-03-06T01:43:51.797Z,502.00
2023-03-06T01:44:51.752Z,501.00
2023-03-06T01:45:51.773Z,503.00
2023-03-06T01:46:51.638Z,504.00
2023-03-06T01:47:51.596Z,502.00
2023-03-06T01:48:51.544Z,502.00
2023-03-06T01:49:51.501Z,506.00
2023-03-06T01:50:51.507Z,501.00
2023-03-06T01:51:51.431Z,502.00
2023-03-06T01:52:51.376Z,503.00
2023-03-06T01:53:51.347Z,504.00
2023-03-06T01:54:51.297Z,507.00
2023-03-06T01:55:51.276Z,502.00
2023-03-06T01:56:51.268Z,500.00
2023-03-06T01:57:51.157Z,501.00
2023-03-06T01:58:51.131Z,501.00
2023-03-06T01:59:51.072Z,502.00
2023-03-06T02:00:51.118Z,509.00
2023-03-06T02:01:50.976Z,500.00
2023-03-06T02:02:50.935Z,501.00
2023-03-06T02:03:50.891Z,502.00
2023-03-06T02:04:50.848Z,504.00
2023-03-06T02:05:50.805Z,501.00
2023-03-06T02:06:50.760Z,502.00
2023-03-06T02:07:50.719Z,502.00
2023-03-06T02:08:50.667Z,503.00
2023-03-06T02:09:50.628Z,506.00
2023-03-06T02:10:50.579Z,501.00
2023-03-06T02:11:50.571Z,501.00
2023-03-06T02:12:50.493Z,504.00
2023-03-06T02:13:50.447Z,503.00
2023-03-06T02:14:50.429Z,504.00
2023-03-06T02:15:50.386Z,501.00
2023-03-06T02:16:50.393Z,502.00
2023-03-06T02:17:50.264Z,502.00
2023-03-06T02:18:50.224Z,501.00
2023-03-06T02:19:50.210Z,501.00
2023-03-06T02:20:50.169Z,504.00
2023-03-06T02:21:50.131Z,502.00
2023-03-06T02:22:50.139Z,502.00
2023-03-06T02:23:50.025Z,503.00
2023-03-06T02:24:49.983Z,504.00
2023-03-06T02:25:49.939Z,505.00
2023-03-06T02:26:49.927Z,504.00
2023-03-06T02:27:49.874Z,502.00
2023-03-06T02:28:49.803Z,504.00
2023-03-06T02:29:49.755Z,507.00
2023-03-06T02:30:49.817Z,505.00
2023-03-06T02:31:49.651Z,505.00
2023-03-06T02:32:49.659Z,503.00
2023-03-06T02:33:49.554Z,500.00
2023-03-06T02:34:49.560Z,503.00
2023-03-06T02:35:49.485Z,505.00
2023-03-06T02:36:49.409Z,505.00
2023-03-06T02:37:49.357Z,506.00
2023-03-06T02:38:49.362Z,505.00
2023-03-06T02:39:49.265Z,500.00
2023-03-06T02:40:49.225Z,505.00
2023-03-06T02:41:49.181Z,506.00
2023-03-06T02:42:49.141Z,505.00
2023-03-06T02:43:49.107Z,509.00
2023-03-06T02:44:49.045Z,506.00
2023-03-06T02:45:49.067Z,509.00
2023-03-06T02:46:48.979Z,505.00
2023-03-06T02:47:48.913Z,508.00
2023-03-06T02:48:48.893Z,507.00
2023-03-06T02:49:48.844Z,506.00
2023-03-06T02:50:48.783Z,507.00
2023-03-06T02:51:48.743Z,504.00
2023-03-06T02:52:48.696Z,502.00
2023-03-06T02:53:48.668Z,510.00
2023-03-06T02:54:48.672Z,506.00
2023-03-06T02:55:48.582Z,507.00
2023-03-06T02:56:48.530Z,506.00
2023-03-06T02:57:48.483Z,502.00
2023-03-06T02:58:48.438Z,507.00
2023-03-06T02:59:48.419Z,508.00
2023-03-06T03:00:48.346Z,504.00
2023-03-06T03:01:48.353Z,508.00
2023-03-06T03:02:48.286Z,504.00
2023-03-06T03:03:48.228Z,502.00
2023-03-06T03:04:48.342Z,504.00
2023-03-06T03:05:48.128Z,504.00
2023-03-06T03:06:48.086Z,504.00
2023-03-06T03:07:48.069Z,503.00
2023-03-06T03:08:47.993Z,504.00
2023-03-06T03:09:47.955Z,503.00
2023-03-06T03:10:47.915Z,501.00
2023-03-06T03:11:47.872Z,505.00
2023-03-06T03:12:47.858Z,505.00
2023-03-06T03:13:47.773Z,504.00
2023-03-06T03:14:47.722Z,505.00
2023-03-06T03:15:47.697Z,502.00
2023-03-06T03:16:47.637Z,502.00
2023-03-06T03:17:47.615Z,503.00
2023-03-06T03:18:47.578Z,506.00
2023-03-06T03:19:47.498Z,502.00
2023-03-06T03:20:47.540Z,503.00
2023-03-06T03:21:47.399Z,502.00
2023-03-06T03:22:47.353Z,505.00
2023-03-06T03:23:47.308Z,502.00
2023-03-06T03:24:47.278Z,507.00
2023-03-06T03:25:47.219Z,507.00
2023-03-06T03:26:47.174Z,504.00
2023-03-06T03:27:47.161Z,508.00
2023-03-06T03:28:47.075Z,507.00
2023-03-06T03:29:47.028Z,502.00
2023-03-06T03:30:47.006Z,506.00
2023-03-06T03:31:46.953Z,505.00
2023-03-06T03:32:46.985Z,503.00
2023-03-06T03:33:46.849Z,503.00
2023-03-06T03:34:46.817Z,505.00
2023-03-06T03:35:46.801Z,507.00
2023-03-06T03:36:46.731Z,505.00
2023-03-06T03:37:46.651Z,506.00
2023-03-06T03:38:46.613Z,509.00
2023-03-06T03:39:46.559Z,512.00
2023-03-06T03:40:46.521Z,502.00
2023-03-06T03:41:46.499Z,504.00
2023-03-06T03:42:46.422Z,505.00
2023-03-06T03:43:46.367Z,508.00
2023-03-06T03:44:46.328Z,510.00
2023-03-06T03:45:46.277Z,505.00
2023-03-06T03:46:46.272Z,505.00
2023-03-06T03:47:46.186Z,504.00
2023-03-06T03:48:46.138Z,501.00
2023-03-06T03:49:46.096Z,507.00
2023-03-06T03:50:46.082Z,505.00
2023-03-06T03:51:46.005Z,510.00
2023-03-06T03:52:45.987Z,507.00
2023-03-06T03:53:45.915Z,511.00
2023-03-06T03:54:45.875Z,508.00
2023-03-06T03:55:45.828Z,507.00
2023-03-06T03:56:45.805Z,507.00
2023-03-06T03:57:45.741Z,508.00
2023-03-06T03:58:45.683Z,503.00
2023-03-06T03:59:45.655Z,504.00
2023-03-06T04:00:45.609Z,505.00
2023-03-06T04:01:45.612Z,509.00
2023-03-06T04:02:45.511Z,506.00
2023-03-06T04:03:45.464Z,506.00
2023-03-06T04:04:45.554Z,507.00
2023-03-06T04:05:45.370Z,505.00
2023-03-06T04:06:45.353Z,507.00
2023-03-06T04:07:45.299Z,507.00
2023-03-06T04:08:45.236Z,503.00
2023-03-06T04:09:45.187Z,511.00
2023-03-06T04:10:45.141Z,508.00
2023-03-06T04:11:45.100Z,507.00
2023-03-06T04:12:45.089Z,510.00
2023-03-06T04:13:45.001Z,506.00
2023-03-06T04:14:44.958Z,507.00
2023-03-06T04:15:44.914Z,508.00
2023-03-06T04:16:44.881Z,507.00
2023-03-06T04:17:44.834Z,505.00
2023-03-06T04:18:44.786Z,506.00
2023-03-06T04:19:44.785Z,507.00
2023-03-06T04:20:45.110Z,510.00
2023-03-06T04:21:44.650Z,507.00
2023-03-06T04:22:44.654Z,510.00
2023-03-06T04:23:44.566Z,504.00
2023-03-06T04:24:44.580Z,509.00
2023-03-06T04:25:44.502Z,507.00
2023-03-06T04:26:44.434Z,509.00
2023-03-06T04:27:44.384Z,506.00
2023-03-06T04:28:44.383Z,508.00
2023-03-06T04:29:44.296Z,506.00
2023-03-06T04:30:44.254Z,508.00
2023-03-06T04:31:44.316Z,505.00
2023-03-06T04:32:44.245Z,508.00
2023-03-06T04:33:44.112Z,509.00
2023-03-06T04:34:44.067Z,510.00
2023-03-06T04:35:44.040Z,507.00
2023-03-06T04:36:43.978Z,502.00
2023-03-06T04:37:43.930Z,507.00
2023-03-06T04:38:43.971Z,510.00
2023-03-06T04:39:43.869Z,506.00
2023-03-06T04:40:44.954Z,508.00
2023-03-06T04:41:43.753Z,509.00
2023-03-06T04:42:43.700Z,508.00
2023-03-06T04:43:43.659Z,507.00
2023-03-06T04:44:43.613Z,508.00
2023-03-06T04:45:43.619Z,508.00
2023-03-06T04:46:43.526Z,507.00
2023-03-06T04:47:43.482Z,504.00
2023-03-06T04:48:43.500Z,506.00
2023-03-06T04:49:43.405Z,508.00
2023-03-06T04:50:43.354Z,506.00
2023-03-06T04:51:43.338Z,507.00
2023-03-06T04:52:43.259Z,511.00
2023-03-06T04:53:43.201Z,508.00
2023-03-06T04:54:43.256Z,504.00
2023-03-06T04:55:43.140Z,509.00
2023-03-06T04:56:43.060Z,505.00
2023-03-06T04:57:43.009Z,510.00
2023-03-06T04:58:42.960Z,506.00
2023-03-06T04:59:42.923Z,503.00
2023-03-06T05:00:42.923Z,505.00
2023-03-06T05:01:42.846Z,504.00
2023-03-06T05:02:42.830Z,506.00
2023-03-06T05:03:42.760Z,509.00
2023-03-06T05:04:42.756Z,505.00
2023-03-06T05:05:42.674Z,508.00
2023-03-06T05:06:42.638Z,509.00
2023-03-06T05:07:42.594Z,509.00
2023-03-06T05:08:42.554Z,506.00
2023-03-06T05:09:42.508Z,504.00
2023-03-06T05:10:42.540Z,510.00
2023-03-06T05:11:42.432Z,508.00
2023-03-06T05:12:42.390Z,500.00
2023-03-06T05:13:42.346Z,509.00
2023-03-06T05:14:42.304Z,505.00
2023-03-06T05:15:42.298Z,507.00
2023-03-06T05:16:42.274Z,509.00
2023-03-06T05:17:42.168Z,509.00
2023-03-06T05:18:42.163Z,502.00
2023-03-06T05:19:42.084Z,504.00
2023-03-06T05:20:42.042Z,507.00
2023-03-06T05:21:42.000Z,504.00
2023-03-06T05:22:41.970Z,501.00
2023-03-06T05:23:41.924Z,505.00
2023-03-06T05:24:41.882Z,503.00
2023-03-06T05:25:41.853Z,506.00
2023-03-06T05:26:41.813Z,502.00
2023-03-06T05:27:41.736Z,502.00
2023-03-06T05:28:41.701Z,503.00
2023-03-06T05:29:41.659Z,503.00
2023-03-06T05:30:41.618Z,505.00
2023-03-06T05:31:41.627Z,507.00
2023-03-06T05:32:41.695Z,509.00
2023-03-06T05:33:41.475Z,505.00
2023-03-06T05:34:41.436Z,510.00
2023-03-06T05:35:41.469Z,505.00
2023-03-06T05:36:41.358Z,506.00
2023-03-06T05:37:41.337Z,512.00
2023-03-06T05:38:41.261Z,503.00
2023-03-06T05:39:41.209Z,506.00
2023-03-06T05:40:41.177Z,510.00
2023-03-06T05:41:41.112Z,509.00
2023-03-06T05:42:41.096Z,505.00
2023-03-06T05:43:41.024Z,506.00
2023-03-06T05:44:40.967Z,507.00
2023-03-06T05:45:41.000Z,509.00
2023-03-06T05:46:40.878Z,509.00
2023-03-06T05:47:40.835Z,508.00
2023-03-06T05:48:40.873Z,507.00
2023-03-06T05:49:40.739Z,506.00
2023-03-06T05:50:40.725Z,505.00
2023-03-06T05:51:40.656Z,506.00
2023-03-06T05:52:40.611Z,507.00
2023-03-06T05:53:40.562Z,506.00
2023-03-06T05:54:40.521Z,507.00
2023-03-06T05:55:40.471Z,506.00
2023-03-06T05:56:42.781Z,505.00
2023-03-06T05:57:40.389Z,515.00
2023-03-06T05:58:40.370Z,510.00
2023-03-06T05:59:40.314Z,509.00
2023-03-06T06:00:40.277Z,505.00
2023-03-06T06:01:40.229Z,507.00
2023-03-06T06:02:40.273Z,504.00
2023-03-06T06:03:40.182Z,508.00
2023-03-06T06:04:40.133Z,514.00
2023-03-06T06:05:40.076Z,505.00
2023-03-06T06:06:40.035Z,507.00
2023-03-06T06:07:39.991Z,505.00
2023-03-06T06:08:39.943Z,506.00
2023-03-06T06:09:39.898Z,507.00
2023-03-06T06:10:39.856Z,507.00
2023-03-06T06:11:39.814Z,508.00
2023-03-06T06:12:39.791Z,502.00
2023-03-06T06:13:39.756Z,507.00
2023-03-06T06:14:39.767Z,506.00
2023-03-06T06:15:39.690Z,508.00
2023-03-06T06:16:39.629Z,506.00
2023-03-06T06:17:39.666Z,506.00
2023-03-06T06:18:41.256Z,509.00
2023-03-06T06:19:39.496Z,509.00
2023-03-06T06:20:39.445Z,510.00
2023-03-06T06:21:39.412Z,509.00
2023-03-06T06:22:39.378Z,511.00
2023-03-06T06:23:39.330Z,515.00
2023-03-06T06:24:39.283Z,512.00
2023-03-06T06:25:39.264Z,519.00
2023-03-06T06:26:39.211Z,517.00
2023-03-06T06:27:39.200Z,516.00
2023-03-06T06:28:39.140Z,516.00
2023-03-06T06:29:39.072Z,515.00
2023-03-06T06:30:39.046Z,526.00
2023-03-06T06:31:38.971Z,521.00
2023-03-06T06:32:38.971Z,525.00
2023-03-06T06:33:38.890Z,530.00
2023-03-06T06:34:38.846Z,529.00
2023-03-06T06:35:38.851Z,535.00
2023-03-06T06:36:38.761Z,532.00
2023-03-06T06:37:39.684Z,537.00
2023-03-06T06:38:38.654Z,537.00
2023-03-06T06:39:38.608Z,537.00
2023-03-06T06:40:38.567Z,534.00
2023-03-06T06:41:56.955Z,538.00
2023-03-06T06:42:40.282Z,538.00
2023-03-06T06:43:38.397Z,539.00
2023-03-06T06:44:38.897Z,542.00
2023-03-06T06:45:38.304Z,547.00
2023-03-06T06:47:38.382Z,539.00
2023-03-06T06:48:38.149Z,543.00
2023-03-06T06:49:38.109Z,547.00
2023-03-06T06:50:38.055Z,556.00
2023-03-06T06:51:38.193Z,568.00
2023-03-06T06:52:37.972Z,575.00
2023-03-06T06:53:39.778Z,576.00
2023-03-06T06:54:38.655Z,588.00
2023-03-06T06:55:37.903Z,589.00
2023-03-06T06:56:40.995Z,591.00
2023-03-06T06:57:37.737Z,589.00
2023-03-06T06:58:37.699Z,592.00
2023-03-06T06:59:38.172Z,600.00
2023-03-06T07:00:37.705Z,612.00
2023-03-06T07:01:37.688Z,623.00
2023-03-06T07:02:37.525Z,624.00
2023-03-06T07:03:37.459Z,626.00
2023-03-06T07:04:37.391Z,627.00
2023-03-06T07:05:44.739Z,629.00
2023-03-06T07:06:37.647Z,630.00
2023-03-06T07:07:37.246Z,632.00
2023-03-06T07:08:37.200Z,633.00
2023-03-06T07:09:37.140Z,634.00
2023-03-06T07:10:37.091Z,636.00
2023-03-06T07:11:37.226Z,633.00
2023-03-06T07:12:36.993Z,634.00
2023-03-06T07:13:37.317Z,637.00
2023-03-06T07:14:36.946Z,632.00
2023-03-06T07:15:36.965Z,637.00
2023-03-06T07:16:36.809Z,635.00
2023-03-06T07:17:37.198Z,637.00
2023-03-06T07:18:37.159Z,628.00
2023-03-06T07:19:37.995Z,633.00
2023-03-06T07:20:36.649Z,633.00
2023-03-06T07:21:36.653Z,635.00
2023-03-06T07:22:49.943Z,636.00
2023-03-06T07:23:36.486Z,634.00
2023-03-06T07:24:36.397Z,636.00
2023-03-06T07:25:36.353Z,636.00
2023-03-06T07:26:36.624Z,637.00
2023-03-06T07:27:36.316Z,635.00
2023-03-06T07:28:51.184Z,639.00
2023-03-06T07:29:36.189Z,639.00
2023-03-06T07:30:37.163Z,640.00
2023-03-06T07:31:36.224Z,642.00
2023-03-06T07:32:36.109Z,640.00
2023-03-06T07:33:35.989Z,639.00
2023-03-06T07:34:36.270Z,633.00
2023-03-06T07:35:36.001Z,632.00
2023-03-06T07:36:35.839Z,630.00
2023-03-06T07:37:35.810Z,630.00
2023-03-06T07:38:35.741Z,631.00
2023-03-06T07:39:36.152Z,629.00
2023-03-06T07:40:35.649Z,629.00
2023-03-06T07:41:35.610Z,630.00
2023-03-06T07:42:35.552Z,629.00
2023-03-06T07:43:35.502Z,628.00
2023-03-06T07:44:35.655Z,626.00
2023-03-06T07:45:35.408Z,628.00
2023-03-06T07:46:35.460Z,623.00
2023-03-06T07:47:35.683Z,626.00
2023-03-06T07:48:35.281Z,629.00
2023-03-06T07:49:35.240Z,624.00
2023-03-06T07:50:35.682Z,626.00
2023-03-06T07:51:35.161Z,624.00
2023-03-06T07:52:35.106Z,625.00
2023-03-06T07:53:35.058Z,623.00
2023-03-06T07:54:35.072Z,627.00
2023-03-06T07:55:35.136Z,626.00
2023-03-06T07:56:35.019Z,623.00
2023-03-06T07:57:35.160Z,620.00
2023-03-06T07:58:34.838Z,619.00
2023-03-06T07:59:34.769Z,619.00
2023-03-06T08:00:35.179Z,623.00
2023-03-06T08:01:34.673Z,618.00
2023-03-06T08:02:34.727Z,621.00
2023-03-06T08:03:34.642Z,619.00
2023-03-06T08:04:37.729Z,618.00
2023-03-06T08:05:34.480Z,619.00
2023-03-06T08:06:34.628Z,619.00
2023-03-06T08:07:34.666Z,619.00
2023-03-06T08:08:34.337Z,621.00
2023-03-06T08:09:34.317Z,618.00
2023-03-06T08:10:34.292Z,621.00
2023-03-06T08:11:34.271Z,617.00
2023-03-06T08:12:34.179Z,620.00
2023-03-06T08:13:34.178Z,615.00
2023-03-06T08:14:34.082Z,615.00
2023-03-06T08:15:34.035Z,614.00
2023-03-06T08:16:34.294Z,614.00
2023-03-06T08:17:33.920Z,619.00
2023-03-06T08:18:34.154Z,614.00
2023-03-06T08:19:33.818Z,616.00
2023-03-06T08:20:33.782Z,615.00
2023-03-06T08:21:33.817Z,615.00
2023-03-06T08:22:33.719Z,613.00
2023-03-06T08:23:33.676Z,616.00
2023-03-06T08:24:33.597Z,611.00
2023-03-06T08:25:33.612Z,613.00
2023-03-06T08:26:33.484Z,608.00
2023-03-06T08:27:33.439Z,611.00
2023-03-06T08:28:33.676Z,614.00
2023-03-06T08:29:33.333Z,606.00
2023-03-06T08:30:34.275Z,610.00
2023-03-06T08:31:33.342Z,610.00
2023-03-06T08:32:33.758Z,611.00
2023-03-06T08:33:33.142Z,610.00
2023-03-06T08:34:33.074Z,610.00
2023-03-06T08:35:33.088Z,605.00
2023-03-06T08:36:32.991Z,611.00
2023-03-06T08:37:32.991Z,610.00
2023-03-06T08:38:33.215Z,623.00
2023-03-06T08:39:32.865Z,639.00
2023-03-06T08:40:33.452Z,646.00
2023-03-06T08:41:32.743Z,654.00
2023-03-06T08:42:32.707Z,659.00
2023-03-06T08:43:32.682Z,666.00
2023-03-06T08:44:32.578Z,687.00
2023-03-06T08:45:32.561Z,691.00
2023-03-06T08:46:32.499Z,721.00
2023-03-06T08:47:32.663Z,727.00
2023-03-06T08:48:32.375Z,746.00
2023-03-06T08:49:32.675Z,769.00
2023-03-06T08:50:32.270Z,791.00
2023-03-06T08:51:32.217Z,791.00
2023-03-06T08:52:32.156Z,799.00
2023-03-06T08:53:42.600Z,827.00
2023-03-06T08:54:32.153Z,829.00
2023-03-06T08:55:32.288Z,836.00
2023-03-06T08:56:32.260Z,848.00
2023-03-06T08:57:31.938Z,862.00
2023-03-06T08:58:32.184Z,899.00
2023-03-06T08:59:31.812Z,908.00
2023-03-06T09:00:31.840Z,915.00
2023-03-06T09:01:31.843Z,916.00
2023-03-06T09:02:31.732Z,937.00
2023-03-06T09:03:31.653Z,936.00
2023-03-06T09:04:31.567Z,950.00
2023-03-06T09:05:31.495Z,977.00
2023-03-06T09:06:31.451Z,982.00
2023-03-06T09:07:31.397Z,1000.00
2023-03-06T09:08:31.657Z,1005.00
2023-03-06T09:09:31.294Z,1032.00
2023-03-06T09:10:31.267Z,1038.00
2023-03-06T09:11:31.661Z,1043.00
2023-03-06T09:12:37.377Z,1074.00
2023-03-06T09:13:31.088Z,1076.00
2023-03-06T09:14:31.028Z,1084.00
2023-03-06T09:15:30.971Z,1096.00
2023-03-06T09:16:30.937Z,1114.00
2023-03-06T09:17:30.905Z,1139.00
2023-03-06T09:18:30.819Z,1149.00
2023-03-06T09:19:31.171Z,1164.00
2023-03-06T09:20:30.705Z,1190.00
2023-03-06T09:21:30.682Z,1194.00
2023-03-06T09:22:30.605Z,1213.00
2023-03-06T09:23:30.672Z,1243.00
2023-03-06T09:24:30.736Z,1253.00
2023-03-06T09:25:30.468Z,1284.00
2023-03-06T09:26:45.085Z,1297.00
2023-03-06T09:27:31.351Z,1300.00
2023-03-06T09:28:30.465Z,1301.00
2023-03-06T09:29:30.677Z,1311.00
2023-03-06T09:30:30.261Z,1334.00
2023-03-06T09:31:30.137Z,1367.00
2023-03-06T09:32:30.185Z,1436.00
2023-03-06T09:33:30.047Z,1431.00
2023-03-06T09:34:30.000Z,1451.00
2023-03-06T09:35:29.924Z,1453.00
2023-03-06T09:36:30.209Z,1475.00
2023-03-06T09:37:29.818Z,1478.00
2023-03-06T09:38:29.765Z,1495.00
2023-03-06T09:39:30.191Z,1503.00
2023-03-06T09:40:29.797Z,1510.00
2023-03-06T09:41:29.692Z,1520.00
2023-03-06T09:42:29.700Z,1565.00
2023-03-06T09:43:29.520Z,1583.00
2023-03-06T09:44:29.677Z,1584.00
2023-03-06T09:45:29.383Z,1614.00
2023-03-06T09:46:29.794Z,1530.00
2023-03-06T09:47:32.470Z,1313.00
2023-03-06T09:48:29.262Z,1247.00
2023-03-06T09:49:29.195Z,1155.00
2023-03-06T09:50:29.116Z,1212.00
2023-03-06T09:51:29.062Z,1150.00
2023-03-06T09:52:29.011Z,1213.00
2023-03-06T09:53:28.982Z,1279.00
2023-03-06T09:54:29.177Z,1305.00
2023-03-06T09:55:28.885Z,1304.00
2023-03-06T09:56:29.262Z,1310.00
2023-03-06T09:57:28.745Z,1322.00
2023-03-06T09:58:28.749Z,1318.00
2023-03-06T09:59:28.664Z,1318.00
2023-03-06T10:00:28.585Z,1324.00
2023-03-06T10:01:28.621Z,1322.00
2023-03-06T10:02:28.753Z,1333.00
2023-03-06T10:03:28.464Z,1347.00
2023-03-06T10:04:28.398Z,1342.00
2023-03-06T10:05:28.680Z,1369.00
2023-03-06T10:06:28.259Z,1367.00
2023-03-06T10:07:28.236Z,1386.00
2023-03-06T10:08:28.180Z,1396.00
2023-03-06T10:09:28.089Z,1410.00
2023-03-06T10:10:28.192Z,1409.00
2023-03-06T10:11:27.965Z,1417.00
2023-03-06T10:12:28.179Z,1429.00
2023-03-06T10:13:27.853Z,1443.00
2023-03-06T10:14:27.853Z,1453.00
2023-03-06T10:15:27.783Z,1475.00
2023-03-06T10:16:27.691Z,1490.00
2023-03-06T10:17:27.668Z,1507.00
2023-03-06T10:18:27.707Z,1513.00
2023-03-06T10:19:27.503Z,1523.00
2023-03-06T10:20:27.686Z,1541.00
2023-03-06T10:21:27.498Z,1559.00
2023-03-06T10:22:27.401Z,1565.00
2023-03-06T10:23:27.306Z,1578.00
2023-03-06T10:24:27.254Z,1602.00
2023-03-06T10:25:27.258Z,1637.00
2023-03-06T10:26:27.189Z,1654.00
2023-03-06T10:27:29.062Z,1688.00
2023-03-06T10:28:27.013Z,1689.00
2023-03-06T10:29:26.968Z,1694.00
2023-03-06T10:30:27.281Z,1703.00
2023-03-06T10:31:26.860Z,1717.00
2023-03-06T10:32:29.030Z,1749.00
2023-03-06T10:33:27.003Z,1692.00
2023-03-06T10:34:26.722Z,1700.00
2023-03-06T10:35:28.635Z,1713.00
2023-03-06T10:36:26.840Z,1692.00
2023-03-06T10:37:26.480Z,1704.00
2023-03-06T10:38:29.607Z,1727.00
2023-03-06T10:39:27.372Z,1693.00
2023-03-06T10:40:26.279Z,1705.00
2023-03-06T10:41:26.697Z,1722.00
2023-03-06T10:42:28.887Z,1747.00
2023-03-06T10:43:26.464Z,1692.00
2023-03-06T10:44:26.056Z,1702.00
2023-03-06T10:45:26.299Z,1710.00
2023-03-06T10:46:26.283Z,1714.00
2023-03-06T10:47:25.881Z,1720.00
2023-03-06T10:48:26.208Z,1757.00
2023-03-06T10:49:26.207Z,1797.00
2023-03-06T10:50:26.689Z,1820.00
2023-03-06T10:51:25.639Z,1808.00
2023-03-06T10:52:25.574Z,1787.00
2023-03-06T10:53:25.708Z,1784.00
2023-03-06T10:54:25.455Z,1764.00
2023-03-06T10:55:25.423Z,1748.00
2023-03-06T10:56:25.331Z,1733.00
2023-03-06T10:57:25.293Z,1734.00
2023-03-06T10:58:25.734Z,1727.00
2023-03-06T10:59:25.750Z,1725.00
2023-03-06T11:00:25.132Z,1723.00
2023-03-06T11:01:25.157Z,1727.00
2023-03-06T11:02:25.019Z,1723.00
2023-03-06T11:03:25.223Z,1709.00
2023-03-06T11:04:24.973Z,1732.00
2023-03-06T11:05:24.877Z,1721.00
2023-03-06T11:06:24.786Z,1739.00
2023-03-06T11:07:26.102Z,1755.00
2023-03-06T11:08:24.688Z,1753.00
2023-03-06T11:09:24.665Z,1754.00
2023-03-06T11:10:24.582Z,1747.00
2023-03-06T11:11:36.912Z,1751.00
2023-03-06T11:12:24.478Z,1753.00
2023-03-06T11:13:24.411Z,1754.00
2023-03-06T11:14:27.200Z,1740.00
2023-03-06T11:15:24.308Z,1753.00
2023-03-06T11:16:25.970Z,1753.00
2023-03-06T11:17:24.222Z,1751.00
2023-03-06T11:18:24.174Z,1751.00
2023-03-06T11:19:24.215Z,1729.00
2023-03-06T11:20:24.040Z,1702.00
2023-03-06T11:21:23.990Z,1684.00
2023-03-06T11:22:23.936Z,1674.00
2023-03-06T11:23:24.217Z,1659.00
2023-03-06T11:24:24.241Z,1643.00
2023-03-06T11:25:23.774Z,1636.00
2023-03-06T11:26:24.709Z,1636.00
2023-03-06T11:27:23.663Z,1642.00
2023-03-06T11:28:23.715Z,1629.00
2023-03-06T11:29:23.807Z,1612.00
2023-03-06T11:30:23.492Z,1608.00
2023-03-06T11:31:23.736Z,1599.00
2023-03-06T11:32:23.787Z,1595.00
2023-03-06T11:33:23.946Z,1593.00
2023-03-06T11:34:23.705Z,1586.00
2023-03-06T11:35:23.333Z,1574.00
2023-03-06T11:36:23.155Z,1568.00
2023-03-06T11:37:23.212Z,1565.00
2023-03-06T11:38:23.040Z,1569.00
2023-03-06T11:39:22.989Z,1551.00
2023-03-06T11:40:22.965Z,1556.00
2023-03-06T11:41:22.892Z,1534.00
2023-03-06T11:42:22.806Z,1537.00
2023-03-06T11:43:23.218Z,1537.00
2023-03-06T11:44:22.700Z,1520.00
2023-03-06T11:45:22.684Z,1517.00
2023-03-06T11:46:22.909Z,1523.00
2023-03-06T11:47:22.567Z,1508.00
2023-03-06T11:48:22.680Z,1505.00
2023-03-06T11:49:22.444Z,1486.00
2023-03-06T11:50:22.421Z,1497.00
2023-03-06T11:51:22.381Z,1489.00
2023-03-06T11:52:22.715Z,1494.00
2023-03-06T11:53:22.787Z,1486.00
2023-03-06T11:54:22.222Z,1480.00
2023-03-06T11:55:22.125Z,1471.00
2023-03-06T11:56:22.080Z,1467.00
2023-03-06T11:57:22.221Z,1465.00
2023-03-06T11:58:21.965Z,1457.00
2023-03-06T11:59:22.223Z,1455.00
2023-03-06T12:00:21.848Z,1460.00
2023-03-06T12:01:21.811Z,1451.00
2023-03-06T12:02:21.854Z,1443.00
2023-03-06T12:03:21.724Z,1434.00
2023-03-06T12:04:21.646Z,1422.00
2023-03-06T12:05:21.640Z,1427.00
2023-03-06T12:06:21.582Z,1428.00
2023-03-06T12:07:21.491Z,1423.00
2023-03-06T12:08:21.722Z,1408.00
2023-03-06T12:09:21.771Z,1416.00
2023-03-06T12:10:21.320Z,1402.00
2023-03-06T12:11:22.234Z,1397.00
2023-03-06T12:12:21.226Z,1403.00
2023-03-06T12:13:21.163Z,1392.00
2023-03-06T12:14:21.471Z,1389.00
2023-03-06T12:15:21.054Z,1385.00
2023-03-06T12:16:21.055Z,1388.00
2023-03-06T12:17:20.964Z,1379.00
2023-03-06T12:18:20.901Z,1379.00
2023-03-06T12:19:21.225Z,1378.00
2023-03-06T12:20:21.229Z,1363.00
2023-03-06T12:21:20.747Z,1370.00
2023-03-06T12:22:20.757Z,1352.00
2023-03-06T12:23:20.659Z,1365.00
2023-03-06T12:24:20.603Z,1359.00
2023-03-06T12:25:20.547Z,1345.00
2023-03-06T12:26:20.496Z,1343.00
2023-03-06T12:27:20.732Z,1351.00
2023-03-06T12:28:20.398Z,1338.00
2023-03-06T12:29:20.744Z,1335.00
2023-03-06T12:30:20.298Z,1330.00
2023-03-06T12:31:20.298Z,1331.00
2023-03-06T12:32:20.225Z,1324.00
2023-03-06T12:33:20.146Z,1321.00
2023-03-06T12:34:20.257Z,1320.00
2023-03-06T12:35:20.123Z,1325.00
2023-03-06T12:36:20.014Z,1315.00
2023-03-06T12:37:20.235Z,1310.00
2023-03-06T12:38:19.944Z,1302.00
2023-03-06T12:39:19.862Z,1308.00
2023-03-06T12:40:19.825Z,1303.00
2023-03-06T12:41:19.824Z,1299.00
2023-03-06T12:42:23.517Z,1294.00
2023-03-06T12:43:19.662Z,1295.00
2023-03-06T12:44:19.600Z,1297.00
2023-03-06T12:45:19.744Z,1297.00
2023-03-06T12:46:19.622Z,1294.00
2023-03-06T12:47:19.471Z,1282.00
2023-03-06T12:48:19.466Z,1289.00
2023-03-06T12:49:31.074Z,1280.00
2023-03-06T12:50:19.740Z,1281.00
2023-03-06T12:51:19.285Z,1286.00
2023-03-06T12:52:21.650Z,1285.00
2023-03-06T12:53:19.192Z,1282.00
2023-03-06T12:54:19.213Z,1285.00
2023-03-06T12:55:22.677Z,1287.00
2023-03-06T12:56:19.224Z,1282.00
2023-03-06T12:57:19.653Z,1283.00
2023-03-06T12:58:19.742Z,1282.00
2023-03-06T12:59:19.067Z,1281.00
2023-03-06T13:00:19.251Z,1266.00
2023-03-06T13:01:19.384Z,1260.00
2023-03-06T13:02:18.993Z,1262.00
2023-03-06T13:03:19.248Z,1246.00
2023-03-06T13:04:18.835Z,1252.00
2023-03-06T13:05:18.810Z,1239.00
2023-03-06T13:06:18.739Z,1241.00
2023-03-06T13:07:18.727Z,1237.00
2023-03-06T13:08:18.750Z,1243.00
2023-03-06T13:09:18.588Z,1229.00
2023-03-06T13:10:18.565Z,1231.00
2023-03-06T13:11:18.946Z,1225.00
2023-03-06T13:12:18.485Z,1211.00
2023-03-06T13:13:18.749Z,1224.00
2023-03-06T13:14:18.459Z,1215.00
2023-03-06T13:15:18.292Z,1209.00